sensor_id;sensor_type;location;lat;lon;timestamp;pressure;altitude;pressure_sealevel;temperature;humidity
41703;BME280;861;48.808;9.006;2022-08-19T00:01:57;96699.59;;;22.10;69.22
41703;BME280;861;48.808;9.006;2022-08-19T00:04:33;96700.06;;;22.08;69.27
41703;BME280;861;48.808;9.006;2022-08-19T00:07:06;96704.88;;;21.99;69.19
41703;BME280;861;48.808;9.006;2022-08-19T00:09:33;96706.59;;;21.96;69.82
41703;BME280;861;48.808;9.006;2022-08-19T00:12:00;96701.81;;;21.97;69.82
41703;BME280;861;48.808;9.006;2022-08-19T00:14:28;96688.72;;;21.97;69.52
41703;BME280;861;48.808;9.006;2022-08-19T00:16:57;96696.41;;;22.02;69.63
41703;BME280;861;48.808;9.006;2022-08-19T00:19:24;96699.22;;;21.93;69.94
41703;BME280;861;48.808;9.006;2022-08-19T00:21:51;96704.94;;;21.90;70.13
41703;BME280;861;48.808;9.006;2022-08-19T00:24:18;96701.31;;;21.98;69.90
41703;BME280;861;48.808;9.006;2022-08-19T00:26:46;96707.66;;;21.99;69.66
41703;BME280;861;48.808;9.006;2022-08-19T00:29:18;96708.44;;;21.99;69.64
41703;BME280;861;48.808;9.006;2022-08-19T00:31:47;96705.97;;;22.01;69.46
41703;BME280;861;48.808;9.006;2022-08-19T00:34:15;96692.91;;;21.93;69.85
41703;BME280;861;48.808;9.006;2022-08-19T00:36:43;96697.50;;;21.96;69.63
41703;BME280;861;48.808;9.006;2022-08-19T00:39:12;96684.22;;;22.00;69.90
41703;BME280;861;48.808;9.006;2022-08-19T00:41:43;96672.81;;;22.07;69.78
41703;BME280;861;48.808;9.006;2022-08-19T00:44:28;96664.94;;;22.05;69.46
41703;BME280;861;48.808;9.006;2022-08-19T00:46:58;96659.47;;;21.96;69.48
41703;BME280;861;48.808;9.006;2022-08-19T00:49:40;96659.31;;;21.91;70.22
41703;BME280;861;48.808;9.006;2022-08-19T00:52:27;96665.63;;;21.91;69.92
41703;BME280;861;48.808;9.006;2022-08-19T00:55:07;96664.56;;;21.89;70.04
41703;BME280;861;48.808;9.006;2022-08-19T00:57:47;96666.41;;;21.92;70.41
41703;BME280;861;48.808;9.006;2022-08-19T01:00:20;96680.28;;;21.92;70.42
41703;BME280;861;48.808;9.006;2022-08-19T01:02:48;96681.38;;;21.85;70.16
41703;BME280;861;48.808;9.006;2022-08-19T01:05:23;96687.56;;;21.80;70.69
41703;BME280;861;48.808;9.006;2022-08-19T01:08:01;96690.00;;;21.78;70.48
41703;BME280;861;48.808;9.006;2022-08-19T01:10:42;96684.31;;;21.82;70.56
41703;BME280;861;48.808;9.006;2022-08-19T01:13:19;96683.06;;;21.83;70.69
41703;BME280;861;48.808;9.006;2022-08-19T01:16:05;96679.06;;;21.75;70.98
41703;BME280;861;48.808;9.006;2022-08-19T01:18:41;96691.69;;;21.85;71.12
41703;BME280;861;48.808;9.006;2022-08-19T01:21:27;96683.06;;;21.83;70.94
41703;BME280;861;48.808;9.006;2022-08-19T01:23:58;96674.59;;;21.86;70.95
41703;BME280;861;48.808;9.006;2022-08-19T01:26:27;96678.09;;;21.96;70.50
41703;BME280;861;48.808;9.006;2022-08-19T01:28:59;96669.19;;;21.92;70.72
41703;BME280;861;48.808;9.006;2022-08-19T01:31:29;96666.88;;;21.90;70.31
41703;BME280;861;48.808;9.006;2022-08-19T01:34:00;96662.00;;;21.76;70.83
41703;BME280;861;48.808;9.006;2022-08-19T01:36:42;96665.41;;;21.62;71.52
41703;BME280;861;48.808;9.006;2022-08-19T01:39:22;96663.09;;;21.61;71.84
41703;BME280;861;48.808;9.006;2022-08-19T01:41:50;96666.06;;;21.57;71.76
41703;BME280;861;48.808;9.006;2022-08-19T01:44:21;96666.63;;;21.61;71.81
41703;BME280;861;48.808;9.006;2022-08-19T01:46:51;96662.34;;;21.60;71.80
41703;BME280;861;48.808;9.006;2022-08-19T01:49:23;96669.56;;;21.67;71.82
41703;BME280;861;48.808;9.006;2022-08-19T01:51:52;96670.47;;;21.64;71.40
41703;BME280;861;48.808;9.006;2022-08-19T01:54:22;96663.09;;;21.61;71.51
41703;BME280;861;48.808;9.006;2022-08-19T01:57:06;96660.34;;;21.52;71.98
41703;BME280;861;48.808;9.006;2022-08-19T01:59:38;96667.63;;;21.49;72.03
41703;BME280;861;48.808;9.006;2022-08-19T02:02:07;96662.19;;;21.55;72.51
41703;BME280;861;48.808;9.006;2022-08-19T02:04:36;96662.16;;;21.64;71.68
41703;BME280;861;48.808;9.006;2022-08-19T02:07:07;96663.91;;;21.52;71.95
41703;BME280;861;48.808;9.006;2022-08-19T02:09:35;96674.69;;;21.50;71.92
41703;BME280;861;48.808;9.006;2022-08-19T02:12:03;96684.97;;;21.50;72.21
41703;BME280;861;48.808;9.006;2022-08-19T02:14:30;96686.06;;;21.52;72.14
41703;BME280;861;48.808;9.006;2022-08-19T02:16:56;96678.22;;;21.42;72.71
41703;BME280;861;48.808;9.006;2022-08-19T02:19:22;96677.59;;;21.47;72.56
41703;BME280;861;48.808;9.006;2022-08-19T02:21:48;96670.22;;;21.44;72.52
41703;BME280;861;48.808;9.006;2022-08-19T02:24:14;96672.22;;;21.43;72.91
41703;BME280;861;48.808;9.006;2022-08-19T02:26:41;96675.78;;;21.44;72.89
41703;BME280;861;48.808;9.006;2022-08-19T02:29:08;96667.88;;;21.51;72.33
41703;BME280;861;48.808;9.006;2022-08-19T02:31:34;96667.47;;;21.44;72.74
41703;BME280;861;48.808;9.006;2022-08-19T02:34:00;96674.56;;;21.45;72.84
41703;BME280;861;48.808;9.006;2022-08-19T02:36:27;96671.94;;;21.32;73.21
41703;BME280;861;48.808;9.006;2022-08-19T02:38:55;96665.50;;;21.35;73.13
41703;BME280;861;48.808;9.006;2022-08-19T02:41:33;96664.88;;;21.31;73.58
41703;BME280;861;48.808;9.006;2022-08-19T02:44:03;96660.88;;;21.23;73.33
41703;BME280;861;48.808;9.006;2022-08-19T02:46:34;96655.66;;;21.25;73.51
41703;BME280;861;48.808;9.006;2022-08-19T02:49:07;96661.03;;;21.19;74.05
41703;BME280;861;48.808;9.006;2022-08-19T02:51:40;96659.19;;;21.16;74.01
41703;BME280;861;48.808;9.006;2022-08-19T02:54:12;96658.44;;;21.16;73.96
41703;BME280;861;48.808;9.006;2022-08-19T02:57:19;96661.06;;;21.10;74.25
41703;BME280;861;48.808;9.006;2022-08-19T02:59:45;96656.78;;;21.00;74.92
41703;BME280;861;48.808;9.006;2022-08-19T03:02:11;96664.28;;;21.09;74.67
41703;BME280;861;48.808;9.006;2022-08-19T03:04:37;96658.44;;;21.25;73.88
41703;BME280;861;48.808;9.006;2022-08-19T03:07:04;96666.44;;;21.14;74.17
41703;BME280;861;48.808;9.006;2022-08-19T03:09:30;96667.84;;;21.09;74.38
41703;BME280;861;48.808;9.006;2022-08-19T03:11:56;96675.06;;;21.07;74.77
41703;BME280;861;48.808;9.006;2022-08-19T03:14:22;96668.75;;;21.15;74.51
41703;BME280;861;48.808;9.006;2022-08-19T03:16:52;96669.06;;;21.17;74.32
41703;BME280;861;48.808;9.006;2022-08-19T03:19:20;96663.97;;;21.07;74.58
41703;BME280;861;48.808;9.006;2022-08-19T03:21:51;96664.16;;;21.03;74.75
41703;BME280;861;48.808;9.006;2022-08-19T03:24:19;96673.34;;;21.18;74.42
41703;BME280;861;48.808;9.006;2022-08-19T03:26:52;96668.91;;;21.12;74.52
41703;BME280;861;48.808;9.006;2022-08-19T03:29:30;96672.63;;;21.00;74.58
41703;BME280;861;48.808;9.006;2022-08-19T03:32:02;96675.66;;;20.84;75.43
41703;BME280;861;48.808;9.006;2022-08-19T03:34:34;96672.44;;;20.85;75.05
41703;BME280;861;48.808;9.006;2022-08-19T03:37:10;96669.97;;;21.05;74.71
41703;BME280;861;48.808;9.006;2022-08-19T03:39:41;96673.19;;;20.95;74.89
41703;BME280;861;48.808;9.006;2022-08-19T03:42:10;96670.16;;;21.02;74.42
41703;BME280;861;48.808;9.006;2022-08-19T03:44:37;96672.94;;;21.02;74.81
41703;BME280;861;48.808;9.006;2022-08-19T03:47:05;96669.84;;;21.00;74.66
41703;BME280;861;48.808;9.006;2022-08-19T03:49:33;96665.22;;;20.97;74.62
41703;BME280;861;48.808;9.006;2022-08-19T03:52:02;96666.16;;;21.03;74.33
41703;BME280;861;48.808;9.006;2022-08-19T03:54:30;96664.28;;;20.91;75.11
41703;BME280;861;48.808;9.006;2022-08-19T03:56:57;96670.44;;;21.13;74.05
41703;BME280;861;48.808;9.006;2022-08-19T03:59:31;96666.59;;;20.92;75.05
41703;BME280;861;48.808;9.006;2022-08-19T04:02:07;96678.56;;;20.80;75.48
41703;BME280;861;48.808;9.006;2022-08-19T04:04:42;96688.56;;;20.87;74.81
41703;BME280;861;48.808;9.006;2022-08-19T04:07:13;96692.72;;;20.82;75.19
41703;BME280;861;48.808;9.006;2022-08-19T04:09:48;96693.19;;;20.90;74.92
41703;BME280;861;48.808;9.006;2022-08-19T04:12:14;96697.66;;;20.87;74.89
41703;BME280;861;48.808;9.006;2022-08-19T04:14:41;96689.66;;;20.71;75.29
41703;BME280;861;48.808;9.006;2022-08-19T04:17:07;96685.50;;;20.94;74.59
41703;BME280;861;48.808;9.006;2022-08-19T04:19:36;96695.03;;;20.84;75.22
41703;BME280;861;48.808;9.006;2022-08-19T04:22:04;96700.75;;;20.89;74.95
41703;BME280;861;48.808;9.006;2022-08-19T04:24:31;96689.03;;;20.85;75.48
41703;BME280;861;48.808;9.006;2022-08-19T04:27:02;96677.03;;;20.79;75.46
41703;BME280;861;48.808;9.006;2022-08-19T04:29:32;96683.34;;;20.80;75.73
41703;BME280;861;48.808;9.006;2022-08-19T04:32:00;96686.25;;;20.85;75.32
41703;BME280;861;48.808;9.006;2022-08-19T04:34:29;96682.91;;;20.81;76.07
41703;BME280;861;48.808;9.006;2022-08-19T04:36:58;96680.13;;;20.81;75.74
41703;BME280;861;48.808;9.006;2022-08-19T04:39:30;96681.66;;;20.82;75.70
41703;BME280;861;48.808;9.006;2022-08-19T04:42:18;96676.13;;;20.82;76.19
41703;BME280;861;48.808;9.006;2022-08-19T04:45:14;96683.50;;;20.85;76.29
41703;BME280;861;48.808;9.006;2022-08-19T04:47:43;96682.56;;;20.88;75.87
41703;BME280;861;48.808;9.006;2022-08-19T04:50:11;96681.50;;;20.95;75.32
41703;BME280;861;48.808;9.006;2022-08-19T04:52:40;96692.13;;;20.96;76.02
41703;BME280;861;48.808;9.006;2022-08-19T04:55:13;96695.81;;;21.02;75.63
41703;BME280;861;48.808;9.006;2022-08-19T04:57:40;96694.91;;;21.05;75.12
41703;BME280;861;48.808;9.006;2022-08-19T05:00:09;96691.38;;;20.96;75.65
41703;BME280;861;48.808;9.006;2022-08-19T05:02:38;96689.50;;;20.93;75.62
41703;BME280;861;48.808;9.006;2022-08-19T05:05:05;96702.91;;;21.12;74.91
41703;BME280;861;48.808;9.006;2022-08-19T05:07:32;96701.22;;;20.97;75.42
41703;BME280;861;48.808;9.006;2022-08-19T05:09:59;96706.09;;;20.93;75.54
41703;BME280;861;48.808;9.006;2022-08-19T05:12:26;96710.72;;;20.78;76.62
41703;BME280;861;48.808;9.006;2022-08-19T05:14:55;96706.72;;;20.88;76.52
41703;BME280;861;48.808;9.006;2022-08-19T05:17:28;96709.38;;;21.00;75.72
41703;BME280;861;48.808;9.006;2022-08-19T05:19:55;96714.13;;;21.00;75.50
41703;BME280;861;48.808;9.006;2022-08-19T05:22:46;96721.81;;;20.96;76.10
41703;BME280;861;48.808;9.006;2022-08-19T05:25:19;96723.50;;;21.02;76.06
41703;BME280;861;48.808;9.006;2022-08-19T05:27:48;96734.13;;;21.04;76.09
41703;BME280;861;48.808;9.006;2022-08-19T05:30:16;96737.22;;;21.06;75.55
41703;BME280;861;48.808;9.006;2022-08-19T05:32:43;96745.38;;;21.00;75.76
41703;BME280;861;48.808;9.006;2022-08-19T05:35:09;96756.84;;;20.90;76.45
41703;BME280;861;48.808;9.006;2022-08-19T05:37:37;96760.72;;;20.92;76.06
41703;BME280;861;48.808;9.006;2022-08-19T05:40:06;96775.47;;;20.89;76.63
41703;BME280;861;48.808;9.006;2022-08-19T05:42:34;96775.06;;;21.00;76.16
41703;BME280;861;48.808;9.006;2022-08-19T05:45:01;96785.53;;;21.14;75.59
41703;BME280;861;48.808;9.006;2022-08-19T05:47:27;96776.47;;;21.23;75.61
41703;BME280;861;48.808;9.006;2022-08-19T05:49:53;96779.66;;;21.21;75.34
41703;BME280;861;48.808;9.006;2022-08-19T05:52:20;96775.81;;;21.18;75.43
41703;BME280;861;48.808;9.006;2022-08-19T05:54:47;96767.84;;;21.11;75.35
41703;BME280;861;48.808;9.006;2022-08-19T05:57:14;96768.56;;;21.21;75.14
41703;BME280;861;48.808;9.006;2022-08-19T05:59:41;96777.84;;;21.27;74.97
41703;BME280;861;48.808;9.006;2022-08-19T06:02:11;96782.75;;;21.14;75.28
41703;BME280;861;48.808;9.006;2022-08-19T06:04:39;96773.38;;;21.30;74.59
41703;BME280;861;48.808;9.006;2022-08-19T06:07:09;96780.59;;;21.18;75.36
41703;BME280;861;48.808;9.006;2022-08-19T06:09:35;96784.88;;;21.10;75.74
41703;BME280;861;48.808;9.006;2022-08-19T06:12:03;96782.44;;;21.12;75.59
41703;BME280;861;48.808;9.006;2022-08-19T06:14:36;96777.22;;;21.05;76.38
41703;BME280;861;48.808;9.006;2022-08-19T06:17:03;96776.75;;;21.06;76.04
41703;BME280;861;48.808;9.006;2022-08-19T06:19:31;96782.44;;;21.12;75.32
41703;BME280;861;48.808;9.006;2022-08-19T06:21:59;96773.34;;;21.02;75.81
41703;BME280;861;48.808;9.006;2022-08-19T06:24:29;96776.91;;;21.30;75.14
41703;BME280;861;48.808;9.006;2022-08-19T06:26:59;96769.69;;;21.14;75.61
41703;BME280;861;48.808;9.006;2022-08-19T06:29:28;96765.81;;;21.21;75.19
41703;BME280;861;48.808;9.006;2022-08-19T06:32:02;96771.53;;;21.17;75.40
41703;BME280;861;48.808;9.006;2022-08-19T06:34:33;96769.22;;;21.16;75.81
41703;BME280;861;48.808;9.006;2022-08-19T06:37:01;96773.19;;;21.15;75.54
41703;BME280;861;48.808;9.006;2022-08-19T06:39:35;96763.19;;;21.08;75.76
41703;BME280;861;48.808;9.006;2022-08-19T06:42:06;96769.97;;;21.16;75.58
41703;BME280;861;48.808;9.006;2022-08-19T06:44:39;96777.97;;;21.33;74.73
41703;BME280;861;48.808;9.006;2022-08-19T06:47:12;96770.44;;;21.33;74.87
41703;BME280;861;48.808;9.006;2022-08-19T06:49:42;96779.38;;;21.28;75.02
41703;BME280;861;48.808;9.006;2022-08-19T06:52:10;96776.13;;;21.30;75.26
41703;BME280;861;48.808;9.006;2022-08-19T06:54:41;96773.53;;;21.35;74.76
41703;BME280;861;48.808;9.006;2022-08-19T06:57:09;96781.19;;;21.40;74.30
41703;BME280;861;48.808;9.006;2022-08-19T06:59:39;96779.81;;;21.36;74.43
41703;BME280;861;48.808;9.006;2022-08-19T07:02:07;96777.06;;;21.45;74.13
41703;BME280;861;48.808;9.006;2022-08-19T07:04:36;96771.03;;;21.37;74.63
41703;BME280;861;48.808;9.006;2022-08-19T07:07:14;96779.84;;;21.45;74.37
41703;BME280;861;48.808;9.006;2022-08-19T07:09:44;96778.72;;;21.69;73.51
41703;BME280;861;48.808;9.006;2022-08-19T07:12:14;96785.66;;;21.47;74.58
41703;BME280;861;48.808;9.006;2022-08-19T07:14:43;96778.56;;;21.73;73.51
41703;BME280;861;48.808;9.006;2022-08-19T07:17:12;96790.88;;;21.63;73.30
41703;BME280;861;48.808;9.006;2022-08-19T07:19:40;96788.13;;;21.54;74.09
41703;BME280;861;48.808;9.006;2022-08-19T07:22:09;96792.75;;;21.48;74.04
41703;BME280;861;48.808;9.006;2022-08-19T07:24:38;96796.44;;;21.54;73.90
41703;BME280;861;48.808;9.006;2022-08-19T07:27:07;96800.44;;;21.62;73.77
41703;BME280;861;48.808;9.006;2022-08-19T07:29:36;96798.88;;;21.61;73.85
41703;BME280;861;48.808;9.006;2022-08-19T07:32:05;96797.19;;;21.54;74.49
41703;BME280;861;48.808;9.006;2022-08-19T07:34:33;96791.81;;;21.60;73.98
41703;BME280;861;48.808;9.006;2022-08-19T07:37:06;96796.41;;;21.72;73.86
41703;BME280;861;48.808;9.006;2022-08-19T07:39:37;96801.81;;;21.84;72.88
41703;BME280;861;48.808;9.006;2022-08-19T07:42:10;96805.81;;;21.56;74.16
41703;BME280;861;48.808;9.006;2022-08-19T07:44:37;96804.91;;;21.59;74.20
41703;BME280;861;48.808;9.006;2022-08-19T07:47:06;96802.59;;;21.76;73.44
41703;BME280;861;48.808;9.006;2022-08-19T07:49:33;96800.25;;;21.92;72.92
41703;BME280;861;48.808;9.006;2022-08-19T07:52:07;96802.25;;;21.74;73.50
41703;BME280;861;48.808;9.006;2022-08-19T07:54:39;96799.34;;;21.59;73.99
41703;BME280;861;48.808;9.006;2022-08-19T07:57:08;96807.06;;;21.64;74.39
41703;BME280;861;48.808;9.006;2022-08-19T07:59:34;96810.00;;;21.70;73.87
41703;BME280;861;48.808;9.006;2022-08-19T08:02:02;96804.72;;;21.72;73.84
41703;BME280;861;48.808;9.006;2022-08-19T08:04:30;96800.91;;;21.78;73.51
41703;BME280;861;48.808;9.006;2022-08-19T08:07:16;96810.13;;;21.66;74.11
41703;BME280;861;48.808;9.006;2022-08-19T08:10:04;96810.72;;;21.70;74.31
41703;BME280;861;48.808;9.006;2022-08-19T08:12:40;96810.59;;;21.74;74.11
41703;BME280;861;48.808;9.006;2022-08-19T08:15:17;96803.97;;;21.71;73.96
41703;BME280;861;48.808;9.006;2022-08-19T08:17:45;96811.53;;;21.80;73.83
41703;BME280;861;48.808;9.006;2022-08-19T08:20:13;96812.28;;;21.89;73.21
41703;BME280;861;48.808;9.006;2022-08-19T08:22:46;96822.75;;;21.76;73.68
41703;BME280;861;48.808;9.006;2022-08-19T08:25:32;96818.72;;;21.95;72.78
41703;BME280;861;48.808;9.006;2022-08-19T08:28:03;96822.91;;;21.91;73.11
41703;BME280;861;48.808;9.006;2022-08-19T08:30:31;96823.25;;;21.84;73.02
41703;BME280;861;48.808;9.006;2022-08-19T08:32:59;96818.59;;;21.72;73.34
41703;BME280;861;48.808;9.006;2022-08-19T08:35:25;96824.00;;;21.75;73.37
41703;BME280;861;48.808;9.006;2022-08-19T08:37:55;96825.38;;;21.62;74.05
41703;BME280;861;48.808;9.006;2022-08-19T08:40:53;96824.94;;;21.63;73.96
41703;BME280;861;48.808;9.006;2022-08-19T08:43:40;96819.38;;;21.54;74.56
41703;BME280;861;48.808;9.006;2022-08-19T08:46:55;96822.91;;;21.55;74.46
41703;BME280;861;48.808;9.006;2022-08-19T08:49:51;96827.38;;;21.43;75.38
41703;BME280;861;48.808;9.006;2022-08-19T08:52:33;96821.53;;;21.68;74.43
41703;BME280;861;48.808;9.006;2022-08-19T08:55:29;96827.41;;;21.79;73.84
41703;BME280;861;48.808;9.006;2022-08-19T08:58:11;96831.25;;;21.82;73.74
41703;BME280;861;48.808;9.006;2022-08-19T09:00:49;96818.44;;;21.84;73.54
41703;BME280;861;48.808;9.006;2022-08-19T09:06:02;96823.38;;;21.71;74.50
41703;BME280;861;48.808;9.006;2022-08-19T09:09:21;96820.00;;;21.76;74.14
41703;BME280;861;48.808;9.006;2022-08-19T09:12:38;96821.22;;;21.84;74.23
41703;BME280;861;48.808;9.006;2022-08-19T09:15:32;96819.97;;;21.94;73.72
41703;BME280;861;48.808;9.006;2022-08-19T09:18:05;96827.63;;;22.17;72.91
41703;BME280;861;48.808;9.006;2022-08-19T09:20:32;96828.44;;;22.09;73.33
41703;BME280;861;48.808;9.006;2022-08-19T09:22:59;96828.38;;;22.18;72.67
41703;BME280;861;48.808;9.006;2022-08-19T09:25:26;96831.53;;;21.93;74.27
41703;BME280;861;48.808;9.006;2022-08-19T09:27:55;96837.50;;;22.09;73.81
41703;BME280;861;48.808;9.006;2022-08-19T09:30:39;96836.81;;;22.32;72.31
41703;BME280;861;48.808;9.006;2022-08-19T09:33:08;96838.25;;;22.19;72.72
41703;BME280;861;48.808;9.006;2022-08-19T09:35:34;96843.16;;;22.24;72.89
41703;BME280;861;48.808;9.006;2022-08-19T09:38:01;96836.28;;;22.10;73.39
41703;BME280;861;48.808;9.006;2022-08-19T09:40:30;96837.97;;;22.08;73.85
41703;BME280;861;48.808;9.006;2022-08-19T09:42:58;96831.38;;;22.56;71.31
41703;BME280;861;48.808;9.006;2022-08-19T09:45:29;96841.09;;;22.51;71.85
41703;BME280;861;48.808;9.006;2022-08-19T09:47:56;96835.75;;;22.30;72.59
41703;BME280;861;48.808;9.006;2022-08-19T09:50:24;96839.78;;;22.20;72.67
41703;BME280;861;48.808;9.006;2022-08-19T09:52:51;96841.78;;;22.19;72.92
41703;BME280;861;48.808;9.006;2022-08-19T09:55:19;96838.03;;;22.31;72.56
41703;BME280;861;48.808;9.006;2022-08-19T09:57:45;96846.72;;;22.24;72.56
41703;BME280;861;48.808;9.006;2022-08-19T10:00:12;96844.88;;;22.21;73.11
41703;BME280;861;48.808;9.006;2022-08-19T10:02:38;96843.34;;;22.11;73.30
41703;BME280;861;48.808;9.006;2022-08-19T10:05:05;96848.56;;;22.27;72.83
41703;BME280;861;48.808;9.006;2022-08-19T10:07:50;96845.53;;;22.49;71.50
41703;BME280;861;48.808;9.006;2022-08-19T10:10:17;96850.91;;;22.61;71.24
41703;BME280;861;48.808;9.006;2022-08-19T10:12:43;96847.09;;;22.50;71.71
41703;BME280;861;48.808;9.006;2022-08-19T10:15:13;96843.41;;;22.53;71.45
41703;BME280;861;48.808;9.006;2022-08-19T10:17:40;96842.66;;;22.43;72.14
41703;BME280;861;48.808;9.006;2022-08-19T10:20:07;96841.19;;;22.66;70.77
41703;BME280;861;48.808;9.006;2022-08-19T10:22:35;96844.19;;;22.44;71.93
41703;BME280;861;48.808;9.006;2022-08-19T10:25:05;96841.66;;;22.64;71.24
41703;BME280;861;48.808;9.006;2022-08-19T10:27:32;96844.06;;;22.81;70.64
41703;BME280;861;48.808;9.006;2022-08-19T10:29:58;96848.72;;;22.75;70.48
41703;BME280;861;48.808;9.006;2022-08-19T10:32:24;96838.88;;;22.64;71.37
41703;BME280;861;48.808;9.006;2022-08-19T10:34:51;96841.81;;;22.94;69.35
41703;BME280;861;48.808;9.006;2022-08-19T10:37:18;96835.19;;;22.67;71.28
41703;BME280;861;48.808;9.006;2022-08-19T10:39:46;96838.00;;;22.91;70.35
41703;BME280;861;48.808;9.006;2022-08-19T10:42:14;96838.41;;;23.22;69.04
41703;BME280;861;48.808;9.006;2022-08-19T10:44:42;96820.72;;;23.11;69.01
41703;BME280;861;48.808;9.006;2022-08-19T10:47:09;96823.22;;;23.32;68.06
41703;BME280;861;48.808;9.006;2022-08-19T10:49:36;96817.41;;;23.45;66.60
41703;BME280;861;48.808;9.006;2022-08-19T10:52:22;96816.09;;;23.55;66.00
41703;BME280;861;48.808;9.006;2022-08-19T10:55:04;96805.50;;;23.68;65.79
41703;BME280;861;48.808;9.006;2022-08-19T10:57:51;96799.25;;;23.87;65.37
41703;BME280;861;48.808;9.006;2022-08-19T11:00:24;96802.63;;;23.77;66.24
41703;BME280;861;48.808;9.006;2022-08-19T11:02:51;96810.97;;;23.91;65.02
41703;BME280;861;48.808;9.006;2022-08-19T11:05:20;96814.31;;;23.95;65.79
41703;BME280;861;48.808;9.006;2022-08-19T11:07:47;96810.03;;;23.94;65.85
41703;BME280;861;48.808;9.006;2022-08-19T11:10:16;96820.69;;;24.40;63.36
41703;BME280;861;48.808;9.006;2022-08-19T11:12:45;96803.84;;;24.14;64.09
41703;BME280;861;48.808;9.006;2022-08-19T11:15:12;96811.75;;;23.92;65.75
41703;BME280;861;48.808;9.006;2022-08-19T11:17:39;96809.91;;;23.89;66.05
41703;BME280;861;48.808;9.006;2022-08-19T11:20:13;96803.91;;;24.05;65.95
41703;BME280;861;48.808;9.006;2022-08-19T11:22:42;96806.13;;;24.16;64.64
41703;BME280;861;48.808;9.006;2022-08-19T11:25:11;96798.53;;;24.31;64.93
41703;BME280;861;48.808;9.006;2022-08-19T11:27:41;96794.88;;;24.25;65.07
41703;BME280;861;48.808;9.006;2022-08-19T11:30:12;96800.16;;;24.37;64.45
41703;BME280;861;48.808;9.006;2022-08-19T11:32:41;96805.53;;;24.26;64.35
41703;BME280;861;48.808;9.006;2022-08-19T11:35:08;96805.63;;;24.32;64.12
41703;BME280;861;48.808;9.006;2022-08-19T11:37:34;96809.59;;;24.25;63.95
41703;BME280;861;48.808;9.006;2022-08-19T11:40:10;96817.81;;;24.34;62.35
41703;BME280;861;48.808;9.006;2022-08-19T11:42:37;96821.09;;;24.33;62.34
41703;BME280;861;48.808;9.006;2022-08-19T11:45:24;96812.97;;;24.64;60.05
41703;BME280;861;48.808;9.006;2022-08-19T11:47:53;96815.41;;;24.27;62.02
41703;BME280;861;48.808;9.006;2022-08-19T11:50:21;96798.91;;;24.38;60.43
41703;BME280;861;48.808;9.006;2022-08-19T11:52:49;96805.69;;;24.66;59.39
41703;BME280;861;48.808;9.006;2022-08-19T11:55:17;96803.19;;;24.68;58.97
41703;BME280;861;48.808;9.006;2022-08-19T11:57:45;96804.59;;;24.64;59.60
41703;BME280;861;48.808;9.006;2022-08-19T12:00:13;96802.56;;;24.79;59.27
41703;BME280;861;48.808;9.006;2022-08-19T12:02:40;96805.59;;;24.95;58.81
41703;BME280;861;48.808;9.006;2022-08-19T12:05:10;96809.34;;;24.58;59.81
41703;BME280;861;48.808;9.006;2022-08-19T12:07:37;96808.16;;;24.64;60.01
41703;BME280;861;48.808;9.006;2022-08-19T12:10:04;96805.31;;;24.44;60.65
41703;BME280;861;48.808;9.006;2022-08-19T12:12:30;96800.41;;;24.54;58.99
41703;BME280;861;48.808;9.006;2022-08-19T12:14:57;96800.38;;;24.83;58.17
41703;BME280;861;48.808;9.006;2022-08-19T12:17:26;96793.19;;;24.76;58.62
41703;BME280;861;48.808;9.006;2022-08-19T12:19:54;96782.81;;;24.77;59.31
41703;BME280;861;48.808;9.006;2022-08-19T12:22:21;96786.66;;;24.99;58.08
41703;BME280;861;48.808;9.006;2022-08-19T12:24:48;96786.00;;;24.90;59.33
41703;BME280;861;48.808;9.006;2022-08-19T12:27:18;96786.19;;;25.21;56.75
41703;BME280;861;48.808;9.006;2022-08-19T12:29:45;96785.63;;;25.17;56.39
41703;BME280;861;48.808;9.006;2022-08-19T12:32:12;96785.63;;;25.17;56.19
41703;BME280;861;48.808;9.006;2022-08-19T12:34:39;96780.38;;;25.04;55.66
41703;BME280;861;48.808;9.006;2022-08-19T12:37:06;96784.63;;;24.80;56.90
41703;BME280;861;48.808;9.006;2022-08-19T12:39:42;96781.00;;;24.74;56.94
41703;BME280;861;48.808;9.006;2022-08-19T12:42:12;96781.16;;;24.85;56.77
41703;BME280;861;48.808;9.006;2022-08-19T12:44:42;96781.06;;;24.99;56.37
41703;BME280;861;48.808;9.006;2022-08-19T12:47:12;96784.00;;;25.10;55.97
41703;BME280;861;48.808;9.006;2022-08-19T12:49:41;96782.47;;;25.09;55.89
41703;BME280;861;48.808;9.006;2022-08-19T12:52:09;96786.94;;;25.01;55.53
41703;BME280;861;48.808;9.006;2022-08-19T12:54:37;96788.06;;;25.09;55.20
41703;BME280;861;48.808;9.006;2022-08-19T12:57:10;96791.88;;;25.12;56.32
41703;BME280;861;48.808;9.006;2022-08-19T12:59:39;96785.97;;;25.24;56.03
41703;BME280;861;48.808;9.006;2022-08-19T13:02:07;96793.72;;;25.35;54.88
41703;BME280;861;48.808;9.006;2022-08-19T13:04:35;96789.47;;;25.39;54.81
41703;BME280;861;48.808;9.006;2022-08-19T13:07:07;96799.91;;;25.65;53.51
41703;BME280;861;48.808;9.006;2022-08-19T13:09:35;96800.41;;;25.43;54.94
41703;BME280;861;48.808;9.006;2022-08-19T13:12:03;96783.13;;;25.59;54.21
41703;BME280;861;48.808;9.006;2022-08-19T13:14:35;96791.59;;;25.70;54.09
41703;BME280;861;48.808;9.006;2022-08-19T13:17:01;96792.19;;;25.54;53.46
41703;BME280;861;48.808;9.006;2022-08-19T13:19:28;96794.56;;;25.41;54.20
41703;BME280;861;48.808;9.006;2022-08-19T13:21:54;96794.28;;;25.39;54.27
41703;BME280;861;48.808;9.006;2022-08-19T13:24:21;96790.00;;;25.43;54.82
41703;BME280;861;48.808;9.006;2022-08-19T13:26:47;96793.25;;;25.36;54.89
41703;BME280;861;48.808;9.006;2022-08-19T13:29:13;96786.41;;;25.58;54.63
41703;BME280;861;48.808;9.006;2022-08-19T13:31:58;96792.63;;;25.73;53.93
41703;BME280;861;48.808;9.006;2022-08-19T13:34:43;96799.06;;;25.58;54.20
41703;BME280;861;48.808;9.006;2022-08-19T13:37:15;96799.13;;;25.64;54.10
41703;BME280;861;48.808;9.006;2022-08-19T13:39:41;96810.72;;;25.57;53.93
41703;BME280;861;48.808;9.006;2022-08-19T13:42:07;96796.81;;;25.63;53.15
41703;BME280;861;48.808;9.006;2022-08-19T13:44:36;96799.13;;;25.64;52.79
41703;BME280;861;48.808;9.006;2022-08-19T13:47:05;96793.28;;;25.62;52.59